sensor_id;sensor_type;location;lat;lon;timestamp;P1;durP1;ratioP1;P2;durP2;ratioP2
10063;SDS011;5071;52.360;13.134;2023-02-28T00:01:13;3.00;;;2.20;;
10063;SDS011;5071;52.360;13.134;2023-02-28T00:06:17;3.17;;;2.23;;
10063;SDS011;5071;52.360;13.134;2023-02-28T00:11:20;4.37;;;2.40;;
10063;SDS011;5071;52.360;13.134;2023-02-28T00:16:23;5.13;;;2.40;;
10063;SDS011;5071;52.360;13.134;2023-02-28T00:21:27;4.17;;;2.30;;
10063;SDS011;5071;52.360;13.134;2023-02-28T00:26:29;4.93;;;2.00;;
10063;SDS011;5071;52.360;13.134;2023-02-28T00:31:31;3.30;;;2.30;;
10063;SDS011;5071;52.360;13.134;2023-02-28T00:36:34;3.07;;;2.17;;
10063;SDS011;5071;52.360;13.134;2023-02-28T00:41:36;5.43;;;2.40;;
10063;SDS011;5071;52.360;13.134;2023-02-28T00:46:39;4.70;;;2.00;;
10063;SDS011;5071;52.360;13.134;2023-02-28T00:51:42;4.23;;;2.33;;
10063;SDS011;5071;52.360;13.134;2023-02-28T00:56:45;4.30;;;2.30;;
10063;SDS011;5071;52.360;13.134;2023-02-28T01:01:47;4.27;;;2.40;;
10063;SDS011;5071;52.360;13.134;2023-02-28T01:06:51;5.77;;;2.27;;
10063;SDS011;5071;52.360;13.134;2023-02-28T01:11:54;3.57;;;2.23;;
10063;SDS011;5071;52.360;13.134;2023-02-28T01:16:56;4.33;;;1.90;;
10063;SDS011;5071;52.360;13.134;2023-02-28T01:22:01;5.03;;;2.60;;
10063;SDS011;5071;52.360;13.134;2023-02-28T01:27:04;4.60;;;2.47;;
10063;SDS011;5071;52.360;13.134;2023-02-28T01:32:06;4.30;;;2.30;;
10063;SDS011;5071;52.360;13.134;2023-02-28T01:37:09;5.00;;;2.43;;
10063;SDS011;5071;52.360;13.134;2023-02-28T01:42:11;3.57;;;2.10;;
10063;SDS011;5071;52.360;13.134;2023-02-28T01:47:14;4.40;;;2.40;;
10063;SDS011;5071;52.360;13.134;2023-02-28T01:52:18;5.23;;;3.20;;
10063;SDS011;5071;52.360;13.134;2023-02-28T01:57:24;3.23;;;2.80;;
10063;SDS011;5071;52.360;13.134;2023-02-28T02:02:30;2.83;;;2.40;;
10063;SDS011;5071;52.360;13.134;2023-02-28T02:07:34;3.47;;;2.30;;
10063;SDS011;5071;52.360;13.134;2023-02-28T02:12:43;5.53;;;2.60;;
10063;SDS011;5071;52.360;13.134;2023-02-28T02:18:03;3.77;;;2.73;;
10063;SDS011;5071;52.360;13.134;2023-02-28T02:23:20;4.87;;;2.60;;
10063;SDS011;5071;52.360;13.134;2023-02-28T02:28:37;10.57;;;2.70;;
10063;SDS011;5071;52.360;13.134;2023-02-28T02:39:30;4.87;;;3.00;;
10063;SDS011;5071;52.360;13.134;2023-02-28T02:44:38;4.13;;;2.53;;
10063;SDS011;5071;52.360;13.134;2023-02-28T02:49:45;4.60;;;2.80;;
10063;SDS011;5071;52.360;13.134;2023-02-28T02:54:51;3.83;;;2.77;;
10063;SDS011;5071;52.360;13.134;2023-02-28T02:59:57;5.97;;;3.20;;
10063;SDS011;5071;52.360;13.134;2023-02-28T03:05:03;3.17;;;2.43;;
10063;SDS011;5071;52.360;13.134;2023-02-28T03:15:35;5.13;;;2.77;;
10063;SDS011;5071;52.360;13.134;2023-02-28T03:20:48;3.50;;;2.30;;
10063;SDS011;5071;52.360;13.134;2023-02-28T03:26:02;5.20;;;2.20;;
10063;SDS011;5071;52.360;13.134;2023-02-28T03:31:08;4.33;;;2.43;;
10063;SDS011;5071;52.360;13.134;2023-02-28T03:36:18;3.37;;;2.00;;
10063;SDS011;5071;52.360;13.134;2023-02-28T03:41:24;3.40;;;2.43;;
10063;SDS011;5071;52.360;13.134;2023-02-28T03:46:32;3.20;;;2.30;;
10063;SDS011;5071;52.360;13.134;2023-02-28T03:51:39;8.03;;;2.80;;
10063;SDS011;5071;52.360;13.134;2023-02-28T03:56:45;4.33;;;2.80;;
10063;SDS011;5071;52.360;13.134;2023-02-28T04:01:53;4.60;;;2.43;;
10063;SDS011;5071;52.360;13.134;2023-02-28T04:07:02;5.80;;;2.83;;
10063;SDS011;5071;52.360;13.134;2023-02-28T04:12:08;3.80;;;2.63;;
10063;SDS011;5071;52.360;13.134;2023-02-28T04:17:10;3.67;;;2.33;;
10063;SDS011;5071;52.360;13.134;2023-02-28T04:22:14;3.70;;;2.27;;
10063;SDS011;5071;52.360;13.134;2023-02-28T04:27:16;4.17;;;2.77;;
10063;SDS011;5071;52.360;13.134;2023-02-28T04:32:18;2.67;;;2.13;;
10063;SDS011;5071;52.360;13.134;2023-02-28T04:37:21;3.90;;;2.73;;
10063;SDS011;5071;52.360;13.134;2023-02-28T04:42:23;4.63;;;2.20;;
10063;SDS011;5071;52.360;13.134;2023-02-28T04:47:26;7.40;;;2.70;;
10063;SDS011;5071;52.360;13.134;2023-02-28T04:52:29;5.73;;;2.60;;
10063;SDS011;5071;52.360;13.134;2023-02-28T04:57:32;2.93;;;2.30;;
10063;SDS011;5071;52.360;13.134;2023-02-28T05:02:34;4.33;;;2.30;;
10063;SDS011;5071;52.360;13.134;2023-02-28T05:07:37;2.90;;;1.83;;
10063;SDS011;5071;52.360;13.134;2023-02-28T05:12:39;4.33;;;2.50;;
10063;SDS011;5071;52.360;13.134;2023-02-28T05:17:41;4.87;;;2.60;;
10063;SDS011;5071;52.360;13.134;2023-02-28T05:22:45;6.13;;;2.70;;
10063;SDS011;5071;52.360;13.134;2023-02-28T05:27:46;4.67;;;2.93;;
10063;SDS011;5071;52.360;13.134;2023-02-28T05:32:49;5.53;;;2.70;;
10063;SDS011;5071;52.360;13.134;2023-02-28T05:37:54;4.07;;;2.40;;
10063;SDS011;5071;52.360;13.134;2023-02-28T05:42:56;3.50;;;2.73;;
10063;SDS011;5071;52.360;13.134;2023-02-28T05:47:58;2.40;;;1.80;;
10063;SDS011;5071;52.360;13.134;2023-02-28T05:53:01;4.13;;;2.40;;
10063;SDS011;5071;52.360;13.134;2023-02-28T05:58:04;3.93;;;2.47;;
10063;SDS011;5071;52.360;13.134;2023-02-28T06:03:06;5.40;;;2.50;;
10063;SDS011;5071;52.360;13.134;2023-02-28T06:08:10;3.73;;;2.50;;
10063;SDS011;5071;52.360;13.134;2023-02-28T06:13:12;6.27;;;2.87;;
10063;SDS011;5071;52.360;13.134;2023-02-28T06:18:16;4.93;;;3.30;;
10063;SDS011;5071;52.360;13.134;2023-02-28T06:23:20;2.80;;;2.23;;
10063;SDS011;5071;52.360;13.134;2023-02-28T06:28:25;3.20;;;2.40;;
10063;SDS011;5071;52.360;13.134;2023-02-28T06:33:28;5.23;;;2.67;;
10063;SDS011;5071;52.360;13.134;2023-02-28T06:38:35;6.90;;;3.37;;
10063;SDS011;5071;52.360;13.134;2023-02-28T06:43:38;5.20;;;3.40;;
10063;SDS011;5071;52.360;13.134;2023-02-28T06:48:42;5.47;;;2.63;;
10063;SDS011;5071;52.360;13.134;2023-02-28T06:53:46;3.90;;;2.80;;
10063;SDS011;5071;52.360;13.134;2023-02-28T06:58:48;5.93;;;3.00;;
10063;SDS011;5071;52.360;13.134;2023-02-28T07:03:51;6.17;;;3.30;;
10063;SDS011;5071;52.360;13.134;2023-02-28T07:08:55;6.37;;;3.23;;
10063;SDS011;5071;52.360;13.134;2023-02-28T07:13:57;8.83;;;3.73;;
10063;SDS011;5071;52.360;13.134;2023-02-28T07:18:59;6.33;;;3.30;;
10063;SDS011;5071;52.360;13.134;2023-02-28T07:24:02;5.27;;;3.60;;
10063;SDS011;5071;52.360;13.134;2023-02-28T07:29:05;7.10;;;4.37;;
10063;SDS011;5071;52.360;13.134;2023-02-28T07:34:07;6.53;;;3.73;;
10063;SDS011;5071;52.360;13.134;2023-02-28T07:39:10;8.17;;;4.47;;
10063;SDS011;5071;52.360;13.134;2023-02-28T07:44:13;3.70;;;3.20;;
10063;SDS011;5071;52.360;13.134;2023-02-28T07:49:16;8.27;;;5.27;;
10063;SDS011;5071;52.360;13.134;2023-02-28T07:54:19;9.30;;;4.03;;
10063;SDS011;5071;52.360;13.134;2023-02-28T07:59:21;6.87;;;3.90;;
10063;SDS011;5071;52.360;13.134;2023-02-28T08:04:22;6.57;;;3.37;;
10063;SDS011;5071;52.360;13.134;2023-02-28T08:09:25;9.90;;;4.30;;
10063;SDS011;5071;52.360;13.134;2023-02-28T08:14:29;5.23;;;3.10;;
10063;SDS011;5071;52.360;13.134;2023-02-28T08:19:31;3.90;;;2.77;;
10063;SDS011;5071;52.360;13.134;2023-02-28T08:24:37;4.60;;;3.07;;
10063;SDS011;5071;52.360;13.134;2023-02-28T08:29:39;5.60;;;2.77;;
10063;SDS011;5071;52.360;13.134;2023-02-28T08:34:41;2.90;;;1.60;;
10063;SDS011;5071;52.360;13.134;2023-02-28T08:39:45;2.27;;;1.83;;
10063;SDS011;5071;52.360;13.134;2023-02-28T08:44:48;2.53;;;1.63;;
10063;SDS011;5071;52.360;13.134;2023-02-28T08:49:50;2.63;;;1.63;;
10063;SDS011;5071;52.360;13.134;2023-02-28T08:54:53;3.03;;;2.07;;
10063;SDS011;5071;52.360;13.134;2023-02-28T08:59:55;2.73;;;1.80;;
10063;SDS011;5071;52.360;13.134;2023-02-28T09:04:57;2.17;;;1.63;;
10063;SDS011;5071;52.360;13.134;2023-02-28T09:10:01;3.47;;;1.73;;
10063;SDS011;5071;52.360;13.134;2023-02-28T09:15:04;1.87;;;1.10;;
10063;SDS011;5071;52.360;13.134;2023-02-28T09:20:07;1.93;;;1.50;;
10063;SDS011;5071;52.360;13.134;2023-02-28T09:25:12;1.10;;;1.00;;
10063;SDS011;5071;52.360;13.134;2023-02-28T09:30:14;3.93;;;1.10;;
10063;SDS011;5071;52.360;13.134;2023-02-28T09:35:16;1.47;;;1.10;;
10063;SDS011;5071;52.360;13.134;2023-02-28T09:40:20;1.97;;;0.97;;
10063;SDS011;5071;52.360;13.134;2023-02-28T09:45:26;3.17;;;1.50;;
10063;SDS011;5071;52.360;13.134;2023-02-28T09:50:33;2.43;;;1.10;;
10063;SDS011;5071;52.360;13.134;2023-02-28T09:55:42;1.87;;;1.10;;
10063;SDS011;5071;52.360;13.134;2023-02-28T10:00:48;0.73;;;0.67;;
10063;SDS011;5071;52.360;13.134;2023-02-28T10:06:02;1.30;;;0.67;;
10063;SDS011;5071;52.360;13.134;2023-02-28T10:11:14;2.20;;;0.93;;
10063;SDS011;5071;52.360;13.134;2023-02-28T10:16:20;3.07;;;1.10;;
10063;SDS011;5071;52.360;13.134;2023-02-28T10:21:28;2.67;;;0.70;;
10063;SDS011;5071;52.360;13.134;2023-02-28T10:26:36;2.27;;;1.20;;
10063;SDS011;5071;52.360;13.134;2023-02-28T10:31:38;1.00;;;0.77;;
10063;SDS011;5071;52.360;13.134;2023-02-28T10:36:41;1.30;;;1.10;;
10063;SDS011;5071;52.360;13.134;2023-02-28T10:41:46;2.47;;;1.00;;
10063;SDS011;5071;52.360;13.134;2023-02-28T10:46:51;1.20;;;1.10;;
10063;SDS011;5071;52.360;13.134;2023-02-28T10:51:55;1.50;;;1.00;;
10063;SDS011;5071;52.360;13.134;2023-02-28T10:57:14;1.40;;;1.10;;
10063;SDS011;5071;52.360;13.134;2023-02-28T11:02:32;1.70;;;1.30;;
10063;SDS011;5071;52.360;13.134;2023-02-28T11:07:37;2.53;;;1.20;;
10063;SDS011;5071;52.360;13.134;2023-02-28T11:12:57;1.30;;;1.20;;
10063;SDS011;5071;52.360;13.134;2023-02-28T11:18:02;2.20;;;1.20;;
10063;SDS011;5071;52.360;13.134;2023-02-28T11:23:21;1.20;;;0.87;;
10063;SDS011;5071;52.360;13.134;2023-02-28T11:28:29;2.37;;;1.33;;
10063;SDS011;5071;52.360;13.134;2023-02-28T11:33:40;1.77;;;1.03;;
10063;SDS011;5071;52.360;13.134;2023-02-28T11:38:43;4.47;;;1.27;;
10063;SDS011;5071;52.360;13.134;2023-02-28T11:43:52;3.60;;;1.40;;
10063;SDS011;5071;52.360;13.134;2023-02-28T11:49:04;2.00;;;1.40;;
10063;SDS011;5071;52.360;13.134;2023-02-28T11:54:28;1.73;;;1.07;;
10063;SDS011;5071;52.360;13.134;2023-02-28T11:59:49;1.60;;;1.30;;
10063;SDS011;5071;52.360;13.134;2023-02-28T12:05:04;1.90;;;1.30;;
10063;SDS011;5071;52.360;13.134;2023-02-28T12:10:18;2.10;;;1.13;;
10063;SDS011;5071;52.360;13.134;2023-02-28T12:15:30;2.23;;;1.50;;
10063;SDS011;5071;52.360;13.134;2023-02-28T12:20:52;1.40;;;1.20;;
10063;SDS011;5071;52.360;13.134;2023-02-28T12:26:02;1.63;;;0.97;;
10063;SDS011;5071;52.360;13.134;2023-02-28T12:31:18;1.73;;;1.13;;
10063;SDS011;5071;52.360;13.134;2023-02-28T12:36:23;2.47;;;1.17;;
10063;SDS011;5071;52.360;13.134;2023-02-28T12:41:29;4.60;;;1.60;;
10063;SDS011;5071;52.360;13.134;2023-02-28T12:46:41;2.90;;;0.93;;
10063;SDS011;5071;52.360;13.134;2023-02-28T12:51:46;3.17;;;1.50;;
10063;SDS011;5071;52.360;13.134;2023-02-28T12:56:50;1.80;;;1.50;;
10063;SDS011;5071;52.360;13.134;2023-02-28T13:02:18;3.97;;;1.40;;
10063;SDS011;5071;52.360;13.134;2023-02-28T13:07:49;2.73;;;1.73;;
10063;SDS011;5071;52.360;13.134;2023-02-28T13:13:19;2.70;;;1.60;;
10063;SDS011;5071;52.360;13.134;2023-02-28T13:18:28;1.80;;;1.47;;
10063;SDS011;5071;52.360;13.134;2023-02-28T13:23:37;3.63;;;1.57;;
10063;SDS011;5071;52.360;13.134;2023-02-28T13:34:30;2.00;;;1.63;;
10063;SDS011;5071;52.360;13.134;2023-02-28T13:39:48;4.30;;;1.93;;
10063;SDS011;5071;52.360;13.134;2023-02-28T13:50:28;4.70;;;1.57;;
10063;SDS011;5071;52.360;13.134;2023-02-28T13:55:34;3.20;;;1.57;;
10063;SDS011;5071;52.360;13.134;2023-02-28T14:00:50;2.93;;;1.50;;
10063;SDS011;5071;52.360;13.134;2023-02-28T14:06:23;2.80;;;1.80;;
10063;SDS011;5071;52.360;13.134;2023-02-28T14:11:32;2.47;;;1.10;;
10063;SDS011;5071;52.360;13.134;2023-02-28T14:16:36;2.27;;;1.77;;
10063;SDS011;5071;52.360;13.134;2023-02-28T14:21:46;1.97;;;1.30;;
10063;SDS011;5071;52.360;13.134;2023-02-28T14:27:03;2.43;;;1.60;;
10063;SDS011;5071;52.360;13.134;2023-02-28T14:32:18;2.17;;;1.50;;
10063;SDS011;5071;52.360;13.134;2023-02-28T14:37:29;2.00;;;1.60;;
10063;SDS011;5071;52.360;13.134;2023-02-28T14:42:35;2.47;;;1.60;;
10063;SDS011;5071;52.360;13.134;2023-02-28T14:47:38;3.63;;;1.83;;
10063;SDS011;5071;52.360;13.134;2023-02-28T14:52:42;3.53;;;1.80;;
10063;SDS011;5071;52.360;13.134;2023-02-28T14:57:50;3.83;;;1.63;;
10063;SDS011;5071;52.360;13.134;2023-02-28T15:02:54;2.03;;;1.53;;
10063;SDS011;5071;52.360;13.134;2023-02-28T15:08:03;4.33;;;1.70;;
10063;SDS011;5071;52.360;13.134;2023-02-28T15:13:07;3.03;;;1.97;;
10063;SDS011;5071;52.360;13.134;2023-02-28T15:18:16;3.50;;;1.90;;
10063;SDS011;5071;52.360;13.134;2023-02-28T15:23:30;3.20;;;1.80;;
10063;SDS011;5071;52.360;13.134;2023-02-28T15:28:35;3.77;;;1.77;;
10063;SDS011;5071;52.360;13.134;2023-02-28T15:33:38;1.53;;;1.30;;
10063;SDS011;5071;52.360;13.134;2023-02-28T15:38:55;3.10;;;1.40;;
10063;SDS011;5071;52.360;13.134;2023-02-28T15:44:14;7.53;;;1.87;;
10063;SDS011;5071;52.360;13.134;2023-02-28T15:49:27;2.53;;;1.47;;
10063;SDS011;5071;52.360;13.134;2023-02-28T15:54:35;3.63;;;1.87;;
10063;SDS011;5071;52.360;13.134;2023-02-28T15:59:37;2.13;;;1.50;;
10063;SDS011;5071;52.360;13.134;2023-02-28T16:04:54;1.63;;;1.47;;
10063;SDS011;5071;52.360;13.134;2023-02-28T16:09:59;2.03;;;1.30;;
10063;SDS011;5071;52.360;13.134;2023-02-28T16:15:03;3.47;;;1.50;;
10063;SDS011;5071;52.360;13.134;2023-02-28T16:20:12;4.10;;;1.30;;
10063;SDS011;5071;52.360;13.134;2023-02-28T16:25:18;3.17;;;1.50;;
10063;SDS011;5071;52.360;13.134;2023-02-28T16:30:22;3.60;;;1.47;;
10063;SDS011;5071;52.360;13.134;2023-02-28T16:35:26;2.70;;;1.53;;
10063;SDS011;5071;52.360;13.134;2023-02-28T16:40:33;3.10;;;1.53;;
10063;SDS011;5071;52.360;13.134;2023-02-28T16:45:35;3.73;;;1.43;;
10063;SDS011;5071;52.360;13.134;2023-02-28T16:50:37;1.97;;;1.70;;
10063;SDS011;5071;52.360;13.134;2023-02-28T16:55:40;3.83;;;1.53;;
10063;SDS011;5071;52.360;13.134;2023-02-28T17:00:42;6.83;;;1.70;;
10063;SDS011;5071;52.360;13.134;2023-02-28T17:05:45;4.10;;;1.47;;
10063;SDS011;5071;52.360;13.134;2023-02-28T17:10:49;6.63;;;1.90;;
10063;SDS011;5071;52.360;13.134;2023-02-28T17:15:51;4.47;;;2.07;;
10063;SDS011;5071;52.360;13.134;2023-02-28T17:20:53;3.83;;;1.93;;
10063;SDS011;5071;52.360;13.134;2023-02-28T17:25:57;2.77;;;1.50;;
10063;SDS011;5071;52.360;13.134;2023-02-28T17:30:59;3.00;;;1.30;;
10063;SDS011;5071;52.360;13.134;2023-02-28T17:36:01;7.60;;;3.67;;
10063;SDS011;5071;52.360;13.134;2023-02-28T17:41:05;3.07;;;1.40;;
10063;SDS011;5071;52.360;13.134;2023-02-28T17:46:08;3.73;;;2.17;;
10063;SDS011;5071;52.360;13.134;2023-02-28T17:51:21;1.97;;;1.30;;
10063;SDS011;5071;52.360;13.134;2023-02-28T17:56:26;3.00;;;1.40;;
10063;SDS011;5071;52.360;13.134;2023-02-28T18:01:29;2.77;;;1.90;;
10063;SDS011;5071;52.360;13.134;2023-02-28T18:06:33;3.03;;;1.53;;
10063;SDS011;5071;52.360;13.134;2023-02-28T18:11:38;2.50;;;1.50;;
10063;SDS011;5071;52.360;13.134;2023-02-28T18:16:40;4.10;;;1.67;;
10063;SDS011;5071;52.360;13.134;2023-02-28T18:21:43;3.60;;;1.23;;
10063;SDS011;5071;52.360;13.134;2023-02-28T18:26:49;7.17;;;1.97;;
10063;SDS011;5071;52.360;13.134;2023-02-28T18:31:52;4.87;;;1.10;;
10063;SDS011;5071;52.360;13.134;2023-02-28T18:36:56;7.83;;;1.80;;
10063;SDS011;5071;52.360;13.134;2023-02-28T18:41:59;3.83;;;1.50;;
10063;SDS011;5071;52.360;13.134;2023-02-28T18:47:01;4.97;;;2.53;;
10063;SDS011;5071;52.360;13.134;2023-02-28T18:52:06;4.00;;;1.90;;
10063;SDS011;5071;52.360;13.134;2023-02-28T18:57:16;3.43;;;1.90;;
10063;SDS011;5071;52.360;13.134;2023-02-28T19:02:18;3.00;;;1.33;;
10063;SDS011;5071;52.360;13.134;2023-02-28T19:07:20;4.00;;;1.80;;
10063;SDS011;5071;52.360;13.134;2023-02-28T19:12:24;7.37;;;1.73;;
10063;SDS011;5071;52.360;13.134;2023-02-28T19:17:27;1.93;;;1.30;;
10063;SDS011;5071;52.360;13.134;2023-02-28T19:22:29;2.33;;;1.50;;
10063;SDS011;5071;52.360;13.134;2023-02-28T19:27:36;2.13;;;1.50;;
10063;SDS011;5071;52.360;13.134;2023-02-28T19:32:38;4.33;;;1.50;;
10063;SDS011;5071;52.360;13.134;2023-02-28T19:37:40;2.67;;;1.63;;
10063;SDS011;5071;52.360;13.134;2023-02-28T19:42:44;2.90;;;1.77;;
10063;SDS011;5071;52.360;13.134;2023-02-28T19:47:46;3.53;;;1.90;;
10063;SDS011;5071;52.360;13.134;2023-02-28T19:52:47;2.73;;;1.60;;
10063;SDS011;5071;52.360;13.134;2023-02-28T19:57:51;6.43;;;1.90;;
10063;SDS011;5071;52.360;13.134;2023-02-28T20:02:53;5.00;;;2.20;;
10063;SDS011;5071;52.360;13.134;2023-02-28T20:07:57;3.70;;;1.60;;
10063;SDS011;5071;52.360;13.134;2023-02-28T20:13:00;2.87;;;1.80;;
10063;SDS011;5071;52.360;13.134;2023-02-28T20:18:02;7.80;;;2.00;;
10063;SDS011;5071;52.360;13.134;2023-02-28T20:23:04;4.03;;;2.50;;
10063;SDS011;5071;52.360;13.134;2023-02-28T20:28:08;4.10;;;2.10;;
10063;SDS011;5071;52.360;13.134;2023-02-28T20:33:10;4.57;;;2.10;;
10063;SDS011;5071;52.360;13.134;2023-02-28T20:38:16;5.00;;;2.27;;
10063;SDS011;5071;52.360;13.134;2023-02-28T20:43:19;4.27;;;2.63;;
10063;SDS011;5071;52.360;13.134;2023-02-28T20:48:22;6.73;;;2.97;;
10063;SDS011;5071;52.360;13.134;2023-02-28T20:53:25;4.67;;;2.93;;
10063;SDS011;5071;52.360;13.134;2023-02-28T20:58:31;7.90;;;2.70;;
10063;SDS011;5071;52.360;13.134;2023-02-28T21:03:34;4.40;;;3.03;;
10063;SDS011;5071;52.360;13.134;2023-02-28T21:08:36;4.57;;;3.20;;
10063;SDS011;5071;52.360;13.134;2023-02-28T21:13:41;4.93;;;3.00;;
10063;SDS011;5071;52.360;13.134;2023-02-28T21:18:44;6.40;;;3.17;;
10063;SDS011;5071;52.360;13.134;2023-02-28T21:23:45;10.50;;;4.67;;
10063;SDS011;5071;52.360;13.134;2023-02-28T21:28:49;7.97;;;4.33;;
10063;SDS011;5071;52.360;13.134;2023-02-28T21:33:53;8.50;;;4.00;;
10063;SDS011;5071;52.360;13.134;2023-02-28T21:38:57;5.87;;;3.53;;
10063;SDS011;5071;52.360;13.134;2023-02-28T21:44:03;11.87;;;4.60;;
10063;SDS011;5071;52.360;13.134;2023-02-28T21:49:05;9.27;;;4.13;;
10063;SDS011;5071;52.360;13.134;2023-02-28T21:54:08;6.63;;;4.33;;
10063;SDS011;5071;52.360;13.134;2023-02-28T21:59:12;6.93;;;4.17;;
10063;SDS011;5071;52.360;13.134;2023-02-28T22:04:15;5.93;;;3.90;;
10063;SDS011;5071;52.360;13.134;2023-02-28T22:09:18;6.13;;;3.60;;
10063;SDS011;5071;52.360;13.134;2023-02-28T22:14:22;8.30;;;3.87;;
10063;SDS011;5071;52.360;13.134;2023-02-28T22:19:24;6.73;;;3.93;;
10063;SDS011;5071;52.360;13.134;2023-02-28T22:24:29;9.73;;;3.77;;
10063;SDS011;5071;52.360;13.134;2023-02-28T22:29:33;5.57;;;3.20;;
10063;SDS011;5071;52.360;13.134;2023-02-28T22:34:35;7.93;;;4.73;;
10063;SDS011;5071;52.360;13.134;2023-02-28T22:39:37;6.57;;;3.97;;
10063;SDS011;5071;52.360;13.134;2023-02-28T22:44:40;6.60;;;4.43;;
10063;SDS011;5071;52.360;13.134;2023-02-28T22:49:42;6.37;;;4.07;;
10063;SDS011;5071;52.360;13.134;2023-02-28T22:54:47;6.70;;;3.80;;
10063;SDS011;5071;52.360;13.134;2023-02-28T22:59:51;7.83;;;4.17;;
10063;SDS011;5071;52.360;13.134;2023-02-28T23:04:53;16.70;;;5.37;;
10063;SDS011;5071;52.360;13.134;2023-02-28T23:09:56;6.30;;;3.60;;
10063;SDS011;5071;52.360;13.134;2023-02-28T23:14:59;4.10;;;2.87;;
10063;SDS011;5071;52.360;13.134;2023-02-28T23:20:02;9.67;;;3.60;;
10063;SDS011;5071;52.360;13.134;2023-02-28T23:25:04;7.43;;;3.17;;
10063;SDS011;5071;52.360;13.134;2023-02-28T23:30:12;6.53;;;3.27;;
10063;SDS011;5071;52.360;13.134;2023-02-28T23:35:15;6.97;;;4.30;;
10063;SDS011;5071;52.360;13.134;2023-02-28T23:40:17;5.10;;;3.50;;
10063;SDS011;5071;52.360;13.134;2023-02-28T23:45:21;6.20;;;3.13;;
10063;SDS011;5071;52.360;13.134;2023-02-28T23:50:23;5.77;;;3.07;;
10063;SDS011;5071;52.360;13.134;2023-02-28T23:55:25;6.93;;;4.17;;
